Llanbedr, United Kingdom
Current Conditions -  °F | °C
As of 7:50 PM on Friday 31 Oct 2014 (Local Time) from EGOV Reporting Station
Rain Showers Rain Showers  
Wind Chill: 59°   Ceiling: 900
Heat Index: 59°   Visibility: 1.8mi
Dew Point: 57°   Wind: 24mph
Humidity: 94%   Direction: 220°SW
Pressure: 29.71"   Gusts: NA
Location:  52.82°N, 4.1°W
Report Text: EGOV 311950Z AUTO 22021KT 3000 SHRA FEW005/// BKN009/// 15/14 Q1006
Loading
Personal Weather Stations






























Interactive Weather Map
Tropical Storm Tracking
New forecast layout! Learn more

10-Day Weather Forecast

Advertisements
Track Severe Weather on mobile